Hinckley, Maine
Current Conditions -  °F | °C
As of 6:15 PM on Thursday 23 Oct 2014 (Local Time) from KWVL Reporting Station
Overcast Overcast  
Wind Chill: 42°   Ceiling: 1400
Heat Index: 48°   Visibility: 10mi
Dew Point: 43°   Wind: 17mph
Humidity: 82%   Direction: 10°N
Pressure: 29.79"   Gusts: 22mph
Location:  44.69°N, 69.63°W
Report Text: KWVL 232215Z 01015G19KT 10SM SCT008 OVC014 09/06 A2979 RMK AO1 P0006
Loading
Personal Weather Stations






























Interactive Weather Map
Tropical Storm Tracking
New forecast layout! Learn more

10-Day Weather Forecast

Advertisements
Track Severe Weather on mobile